sensor_id;sensor_type;location;lat;lon;timestamp;P1;durP1;ratioP1;P2;durP2;ratioP2
64684;SDS011;51109;47.414;18.954;2024-03-06T00:00:58;60.55;;;30.90;;
64684;SDS011;51109;47.414;18.954;2024-03-06T00:03:23;55.28;;;29.27;;
64684;SDS011;51109;47.414;18.954;2024-03-06T00:05:49;54.97;;;28.08;;
64684;SDS011;51109;47.414;18.954;2024-03-06T00:08:15;59.92;;;30.52;;
64684;SDS011;51109;47.414;18.954;2024-03-06T00:10:41;55.10;;;29.88;;
64684;SDS011;51109;47.414;18.954;2024-03-06T00:13:07;59.47;;;30.67;;
64684;SDS011;51109;47.414;18.954;2024-03-06T00:15:33;57.17;;;29.63;;
64684;SDS011;51109;47.414;18.954;2024-03-06T00:17:59;52.97;;;28.52;;
64684;SDS011;51109;47.414;18.954;2024-03-06T00:20:26;59.08;;;29.35;;
64684;SDS011;51109;47.414;18.954;2024-03-06T00:22:52;62.08;;;31.02;;
64684;SDS011;51109;47.414;18.954;2024-03-06T00:25:18;54.40;;;29.33;;
64684;SDS011;51109;47.414;18.954;2024-03-06T00:27:43;61.17;;;29.20;;
64684;SDS011;51109;47.414;18.954;2024-03-06T00:30:09;52.17;;;29.30;;
64684;SDS011;51109;47.414;18.954;2024-03-06T00:32:36;53.03;;;29.17;;
64684;SDS011;51109;47.414;18.954;2024-03-06T00:35:02;50.00;;;27.50;;
64684;SDS011;51109;47.414;18.954;2024-03-06T00:37:29;49.53;;;26.75;;
64684;SDS011;51109;47.414;18.954;2024-03-06T00:39:54;56.30;;;28.77;;
64684;SDS011;51109;47.414;18.954;2024-03-06T00:42:21;49.15;;;27.48;;
64684;SDS011;51109;47.414;18.954;2024-03-06T00:44:47;55.72;;;28.70;;
64684;SDS011;51109;47.414;18.954;2024-03-06T00:47:13;53.50;;;26.15;;
64684;SDS011;51109;47.414;18.954;2024-03-06T00:49:38;46.85;;;25.60;;
64684;SDS011;51109;47.414;18.954;2024-03-06T00:52:07;52.25;;;26.48;;
64684;SDS011;51109;47.414;18.954;2024-03-06T00:54:34;51.72;;;28.13;;
64684;SDS011;51109;47.414;18.954;2024-03-06T00:57:00;54.65;;;27.60;;
64684;SDS011;51109;47.414;18.954;2024-03-06T00:59:27;48.75;;;25.70;;
64684;SDS011;51109;47.414;18.954;2024-03-06T01:01:53;50.55;;;26.70;;
64684;SDS011;51109;47.414;18.954;2024-03-06T01:04:22;47.50;;;26.70;;
64684;SDS011;51109;47.414;18.954;2024-03-06T01:06:48;43.97;;;25.00;;
64684;SDS011;51109;47.414;18.954;2024-03-06T01:09:14;47.00;;;25.23;;
64684;SDS011;51109;47.414;18.954;2024-03-06T01:11:39;49.35;;;24.55;;
64684;SDS011;51109;47.414;18.954;2024-03-06T01:14:05;43.85;;;23.33;;
64684;SDS011;51109;47.414;18.954;2024-03-06T01:16:31;44.08;;;24.10;;
64684;SDS011;51109;47.414;18.954;2024-03-06T01:18:57;46.17;;;24.02;;
64684;SDS011;51109;47.414;18.954;2024-03-06T01:21:23;42.75;;;24.58;;
64684;SDS011;51109;47.414;18.954;2024-03-06T01:23:49;47.22;;;24.58;;
64684;SDS011;51109;47.414;18.954;2024-03-06T01:26:14;48.67;;;25.75;;
64684;SDS011;51109;47.414;18.954;2024-03-06T01:28:40;39.30;;;23.00;;
64684;SDS011;51109;47.414;18.954;2024-03-06T01:31:06;49.40;;;25.67;;
64684;SDS011;51109;47.414;18.954;2024-03-06T01:33:32;46.20;;;24.92;;
64684;SDS011;51109;47.414;18.954;2024-03-06T01:35:57;48.33;;;24.90;;
64684;SDS011;51109;47.414;18.954;2024-03-06T01:38:23;46.63;;;24.77;;
64684;SDS011;51109;47.414;18.954;2024-03-06T01:40:49;44.22;;;24.75;;
64684;SDS011;51109;47.414;18.954;2024-03-06T01:43:22;48.58;;;24.85;;
64684;SDS011;51109;47.414;18.954;2024-03-06T01:45:50;48.58;;;24.20;;
64684;SDS011;51109;47.414;18.954;2024-03-06T01:48:17;48.00;;;23.25;;
64684;SDS011;51109;47.414;18.954;2024-03-06T01:50:45;54.67;;;25.33;;
64684;SDS011;51109;47.414;18.954;2024-03-06T01:53:12;48.85;;;24.15;;
64684;SDS011;51109;47.414;18.954;2024-03-06T01:55:39;46.40;;;25.27;;
64684;SDS011;51109;47.414;18.954;2024-03-06T01:58:05;43.03;;;24.13;;
64684;SDS011;51109;47.414;18.954;2024-03-06T02:00:32;47.58;;;25.52;;
64684;SDS011;51109;47.414;18.954;2024-03-06T02:02:59;50.95;;;25.48;;
64684;SDS011;51109;47.414;18.954;2024-03-06T02:05:26;47.55;;;25.25;;
64684;SDS011;51109;47.414;18.954;2024-03-06T02:07:53;52.65;;;24.67;;
64684;SDS011;51109;47.414;18.954;2024-03-06T02:10:19;49.65;;;26.15;;
64684;SDS011;51109;47.414;18.954;2024-03-06T02:12:45;49.42;;;24.05;;
64684;SDS011;51109;47.414;18.954;2024-03-06T02:15:13;52.20;;;23.23;;
64684;SDS011;51109;47.414;18.954;2024-03-06T02:17:40;50.08;;;24.30;;
64684;SDS011;51109;47.414;18.954;2024-03-06T02:20:06;48.63;;;25.15;;
64684;SDS011;51109;47.414;18.954;2024-03-06T02:22:48;46.67;;;23.63;;
64684;SDS011;51109;47.414;18.954;2024-03-06T02:25:14;50.75;;;24.80;;
64684;SDS011;51109;47.414;18.954;2024-03-06T02:27:40;51.72;;;25.98;;
64684;SDS011;51109;47.414;18.954;2024-03-06T02:32:40;45.85;;;23.77;;
64684;SDS011;51109;47.414;18.954;2024-03-06T02:35:09;50.15;;;25.92;;
64684;SDS011;51109;47.414;18.954;2024-03-06T02:37:35;54.53;;;25.73;;
64684;SDS011;51109;47.414;18.954;2024-03-06T02:40:00;47.28;;;24.23;;
64684;SDS011;51109;47.414;18.954;2024-03-06T02:42:27;47.25;;;25.58;;
64684;SDS011;51109;47.414;18.954;2024-03-06T02:44:53;48.70;;;25.50;;
64684;SDS011;51109;47.414;18.954;2024-03-06T02:47:19;52.17;;;25.08;;
64684;SDS011;51109;47.414;18.954;2024-03-06T02:49:45;51.67;;;25.55;;
64684;SDS011;51109;47.414;18.954;2024-03-06T02:52:11;48.35;;;25.50;;
64684;SDS011;51109;47.414;18.954;2024-03-06T02:54:37;49.25;;;24.85;;
64684;SDS011;51109;47.414;18.954;2024-03-06T02:57:02;50.53;;;26.90;;
64684;SDS011;51109;47.414;18.954;2024-03-06T02:59:28;50.55;;;24.63;;
64684;SDS011;51109;47.414;18.954;2024-03-06T03:01:54;47.83;;;25.08;;
64684;SDS011;51109;47.414;18.954;2024-03-06T03:04:20;46.45;;;25.67;;
64684;SDS011;51109;47.414;18.954;2024-03-06T03:06:45;51.13;;;24.88;;
64684;SDS011;51109;47.414;18.954;2024-03-06T03:09:11;52.88;;;26.05;;
64684;SDS011;51109;47.414;18.954;2024-03-06T03:11:37;54.10;;;26.40;;
64684;SDS011;51109;47.414;18.954;2024-03-06T03:14:03;52.72;;;26.30;;
64684;SDS011;51109;47.414;18.954;2024-03-06T03:16:29;60.40;;;28.17;;
64684;SDS011;51109;47.414;18.954;2024-03-06T03:18:55;57.22;;;27.00;;
64684;SDS011;51109;47.414;18.954;2024-03-06T03:21:22;57.40;;;29.85;;
64684;SDS011;51109;47.414;18.954;2024-03-06T03:23:47;62.35;;;31.58;;
64684;SDS011;51109;47.414;18.954;2024-03-06T03:26:15;60.00;;;30.38;;
64684;SDS011;51109;47.414;18.954;2024-03-06T03:28:41;67.07;;;30.80;;
64684;SDS011;51109;47.414;18.954;2024-03-06T03:31:07;62.28;;;31.70;;
64684;SDS011;51109;47.414;18.954;2024-03-06T03:33:40;68.72;;;33.15;;
64684;SDS011;51109;47.414;18.954;2024-03-06T03:36:06;62.58;;;30.20;;
64684;SDS011;51109;47.414;18.954;2024-03-06T03:38:33;59.70;;;29.65;;
64684;SDS011;51109;47.414;18.954;2024-03-06T03:41:03;59.40;;;29.58;;
64684;SDS011;51109;47.414;18.954;2024-03-06T03:43:36;54.10;;;29.35;;
64684;SDS011;51109;47.414;18.954;2024-03-06T03:46:04;57.72;;;29.08;;
64684;SDS011;51109;47.414;18.954;2024-03-06T03:48:30;65.15;;;31.38;;
64684;SDS011;51109;47.414;18.954;2024-03-06T03:50:56;68.57;;;31.95;;
64684;SDS011;51109;47.414;18.954;2024-03-06T03:53:22;69.68;;;34.45;;
64684;SDS011;51109;47.414;18.954;2024-03-06T03:55:48;78.53;;;36.17;;
64684;SDS011;51109;47.414;18.954;2024-03-06T03:58:14;80.30;;;37.95;;
64684;SDS011;51109;47.414;18.954;2024-03-06T04:00:39;80.20;;;36.80;;
64684;SDS011;51109;47.414;18.954;2024-03-06T04:03:05;82.32;;;39.20;;
64684;SDS011;51109;47.414;18.954;2024-03-06T04:05:32;85.47;;;39.47;;
64684;SDS011;51109;47.414;18.954;2024-03-06T04:07:58;81.72;;;38.05;;
64684;SDS011;51109;47.414;18.954;2024-03-06T04:10:24;75.63;;;37.17;;
64684;SDS011;51109;47.414;18.954;2024-03-06T04:12:50;82.95;;;36.42;;
64684;SDS011;51109;47.414;18.954;2024-03-06T04:15:15;75.63;;;35.80;;
64684;SDS011;51109;47.414;18.954;2024-03-06T04:17:41;76.22;;;36.45;;
64684;SDS011;51109;47.414;18.954;2024-03-06T04:20:07;74.63;;;35.20;;
64684;SDS011;51109;47.414;18.954;2024-03-06T04:22:37;75.72;;;35.90;;
64684;SDS011;51109;47.414;18.954;2024-03-06T04:25:04;76.10;;;36.53;;
64684;SDS011;51109;47.414;18.954;2024-03-06T04:27:30;80.70;;;36.92;;
64684;SDS011;51109;47.414;18.954;2024-03-06T04:29:57;79.25;;;36.42;;
64684;SDS011;51109;47.414;18.954;2024-03-06T04:32:22;81.57;;;36.28;;
64684;SDS011;51109;47.414;18.954;2024-03-06T04:34:48;79.40;;;36.25;;
64684;SDS011;51109;47.414;18.954;2024-03-06T04:37:14;79.90;;;38.00;;
64684;SDS011;51109;47.414;18.954;2024-03-06T04:39:40;80.88;;;37.42;;
64684;SDS011;51109;47.414;18.954;2024-03-06T04:42:06;80.03;;;38.20;;
64684;SDS011;51109;47.414;18.954;2024-03-06T04:44:35;73.45;;;35.92;;
64684;SDS011;51109;47.414;18.954;2024-03-06T04:47:01;86.13;;;38.80;;
64684;SDS011;51109;47.414;18.954;2024-03-06T04:49:27;82.25;;;38.10;;
64684;SDS011;51109;47.414;18.954;2024-03-06T04:51:53;81.28;;;39.25;;
64684;SDS011;51109;47.414;18.954;2024-03-06T04:54:19;80.72;;;36.78;;
64684;SDS011;51109;47.414;18.954;2024-03-06T04:56:45;86.53;;;38.83;;
64684;SDS011;51109;47.414;18.954;2024-03-06T04:59:11;80.57;;;38.75;;
64684;SDS011;51109;47.414;18.954;2024-03-06T05:01:36;82.53;;;38.05;;
64684;SDS011;51109;47.414;18.954;2024-03-06T05:04:02;83.75;;;38.95;;
64684;SDS011;51109;47.414;18.954;2024-03-06T05:06:29;84.15;;;40.03;;
64684;SDS011;51109;47.414;18.954;2024-03-06T05:08:54;89.30;;;38.92;;
64684;SDS011;51109;47.414;18.954;2024-03-06T05:11:20;88.22;;;38.97;;
64684;SDS011;51109;47.414;18.954;2024-03-06T05:13:46;83.53;;;39.88;;
64684;SDS011;51109;47.414;18.954;2024-03-06T05:16:12;85.90;;;39.45;;
64684;SDS011;51109;47.414;18.954;2024-03-06T05:18:38;80.10;;;37.88;;
64684;SDS011;51109;47.414;18.954;2024-03-06T05:21:03;82.80;;;37.75;;
64684;SDS011;51109;47.414;18.954;2024-03-06T05:23:29;87.95;;;40.05;;
64684;SDS011;51109;47.414;18.954;2024-03-06T05:25:55;78.68;;;37.05;;
64684;SDS011;51109;47.414;18.954;2024-03-06T05:28:21;86.93;;;38.58;;
64684;SDS011;51109;47.414;18.954;2024-03-06T05:30:47;78.32;;;37.28;;
64684;SDS011;51109;47.414;18.954;2024-03-06T05:33:12;84.13;;;37.38;;
64684;SDS011;51109;47.414;18.954;2024-03-06T05:35:38;86.82;;;38.92;;
64684;SDS011;51109;47.414;18.954;2024-03-06T05:38:04;80.10;;;36.75;;
64684;SDS011;51109;47.414;18.954;2024-03-06T05:40:32;80.97;;;38.22;;
64684;SDS011;51109;47.414;18.954;2024-03-06T05:43:02;78.40;;;37.05;;
64684;SDS011;51109;47.414;18.954;2024-03-06T05:45:28;75.10;;;39.25;;
64684;SDS011;51109;47.414;18.954;2024-03-06T05:47:54;74.78;;;36.10;;
64684;SDS011;51109;47.414;18.954;2024-03-06T05:50:20;84.10;;;37.17;;
64684;SDS011;51109;47.414;18.954;2024-03-06T05:52:46;83.00;;;37.47;;
64684;SDS011;51109;47.414;18.954;2024-03-06T05:55:11;75.68;;;36.35;;
64684;SDS011;51109;47.414;18.954;2024-03-06T05:57:37;65.80;;;33.65;;
64684;SDS011;51109;47.414;18.954;2024-03-06T06:00:03;67.35;;;33.03;;
64684;SDS011;51109;47.414;18.954;2024-03-06T06:02:36;70.13;;;32.85;;
64684;SDS011;51109;47.414;18.954;2024-03-06T06:05:02;68.10;;;31.98;;
64684;SDS011;51109;47.414;18.954;2024-03-06T06:07:28;64.65;;;32.60;;
64684;SDS011;51109;47.414;18.954;2024-03-06T06:09:54;68.45;;;32.92;;
64684;SDS011;51109;47.414;18.954;2024-03-06T06:12:19;63.83;;;32.65;;
64684;SDS011;51109;47.414;18.954;2024-03-06T06:14:45;61.72;;;32.25;;
64684;SDS011;51109;47.414;18.954;2024-03-06T06:17:11;59.17;;;32.45;;
64684;SDS011;51109;47.414;18.954;2024-03-06T06:19:41;64.38;;;31.75;;
64684;SDS011;51109;47.414;18.954;2024-03-06T06:22:08;64.63;;;34.13;;
64684;SDS011;51109;47.414;18.954;2024-03-06T06:24:37;63.97;;;32.38;;
64684;SDS011;51109;47.414;18.954;2024-03-06T06:27:03;65.40;;;32.13;;
64684;SDS011;51109;47.414;18.954;2024-03-06T06:29:29;70.25;;;33.90;;
64684;SDS011;51109;47.414;18.954;2024-03-06T06:31:56;61.85;;;32.95;;
64684;SDS011;51109;47.414;18.954;2024-03-06T06:34:22;62.80;;;32.50;;
64684;SDS011;51109;47.414;18.954;2024-03-06T06:36:50;60.15;;;32.17;;
64684;SDS011;51109;47.414;18.954;2024-03-06T06:39:18;70.00;;;34.60;;
64684;SDS011;51109;47.414;18.954;2024-03-06T06:41:43;70.22;;;33.72;;
64684;SDS011;51109;47.414;18.954;2024-03-06T06:44:09;68.40;;;32.97;;
64684;SDS011;51109;47.414;18.954;2024-03-06T06:46:35;63.42;;;33.38;;
64684;SDS011;51109;47.414;18.954;2024-03-06T06:49:01;63.45;;;31.75;;
64684;SDS011;51109;47.414;18.954;2024-03-06T06:51:27;62.50;;;33.40;;
64684;SDS011;51109;47.414;18.954;2024-03-06T06:53:52;62.92;;;32.75;;
64684;SDS011;51109;47.414;18.954;2024-03-06T06:56:20;61.60;;;31.20;;
64684;SDS011;51109;47.414;18.954;2024-03-06T06:58:49;64.80;;;31.92;;
64684;SDS011;51109;47.414;18.954;2024-03-06T07:01:15;63.17;;;32.30;;
64684;SDS011;51109;47.414;18.954;2024-03-06T07:03:45;61.42;;;32.47;;
64684;SDS011;51109;47.414;18.954;2024-03-06T07:06:10;60.30;;;33.65;;
64684;SDS011;51109;47.414;18.954;2024-03-06T07:08:36;60.33;;;33.03;;
64684;SDS011;51109;47.414;18.954;2024-03-06T07:11:02;55.45;;;30.45;;
64684;SDS011;51109;47.414;18.954;2024-03-06T07:13:28;53.00;;;30.00;;
64684;SDS011;51109;47.414;18.954;2024-03-06T07:15:54;57.65;;;30.40;;
64684;SDS011;51109;47.414;18.954;2024-03-06T07:18:20;54.67;;;30.15;;
64684;SDS011;51109;47.414;18.954;2024-03-06T07:20:46;58.75;;;31.40;;
64684;SDS011;51109;47.414;18.954;2024-03-06T07:23:12;56.97;;;32.13;;
64684;SDS011;51109;47.414;18.954;2024-03-06T07:25:38;56.58;;;30.38;;
64684;SDS011;51109;47.414;18.954;2024-03-06T07:28:04;56.72;;;31.48;;
64684;SDS011;51109;47.414;18.954;2024-03-06T07:30:30;57.38;;;29.70;;
64684;SDS011;51109;47.414;18.954;2024-03-06T07:32:56;58.55;;;31.67;;
64684;SDS011;51109;47.414;18.954;2024-03-06T07:35:22;54.60;;;31.33;;
64684;SDS011;51109;47.414;18.954;2024-03-06T07:37:48;58.70;;;30.88;;
64684;SDS011;51109;47.414;18.954;2024-03-06T07:40:14;55.67;;;29.45;;
64684;SDS011;51109;47.414;18.954;2024-03-06T07:42:40;55.40;;;30.45;;
64684;SDS011;51109;47.414;18.954;2024-03-06T07:45:06;63.20;;;31.98;;
64684;SDS011;51109;47.414;18.954;2024-03-06T07:47:34;67.28;;;33.47;;
64684;SDS011;51109;47.414;18.954;2024-03-06T07:50:00;63.05;;;33.42;;
64684;SDS011;51109;47.414;18.954;2024-03-06T07:52:25;63.35;;;33.75;;
64684;SDS011;51109;47.414;18.954;2024-03-06T07:54:51;58.72;;;31.85;;
64684;SDS011;51109;47.414;18.954;2024-03-06T07:57:17;54.95;;;30.63;;
64684;SDS011;51109;47.414;18.954;2024-03-06T07:59:43;53.70;;;30.42;;
64684;SDS011;51109;47.414;18.954;2024-03-06T08:02:09;56.28;;;30.90;;
64684;SDS011;51109;47.414;18.954;2024-03-06T08:04:35;58.50;;;30.70;;
64684;SDS011;51109;47.414;18.954;2024-03-06T08:07:01;58.90;;;32.92;;
64684;SDS011;51109;47.414;18.954;2024-03-06T08:09:27;57.97;;;32.03;;
64684;SDS011;51109;47.414;18.954;2024-03-06T08:11:54;47.75;;;29.40;;
64684;SDS011;51109;47.414;18.954;2024-03-06T08:14:20;56.00;;;29.92;;
64684;SDS011;51109;47.414;18.954;2024-03-06T08:16:46;53.45;;;28.85;;
64684;SDS011;51109;47.414;18.954;2024-03-06T08:19:12;52.00;;;29.80;;
64684;SDS011;51109;47.414;18.954;2024-03-06T08:21:38;57.05;;;28.60;;
64684;SDS011;51109;47.414;18.954;2024-03-06T08:24:04;45.55;;;25.85;;
64684;SDS011;51109;47.414;18.954;2024-03-06T08:26:30;55.88;;;29.73;;
64684;SDS011;51109;47.414;18.954;2024-03-06T08:28:55;53.10;;;29.88;;
64684;SDS011;51109;47.414;18.954;2024-03-06T08:31:21;49.42;;;29.13;;
64684;SDS011;51109;47.414;18.954;2024-03-06T08:33:47;49.30;;;28.30;;
64684;SDS011;51109;47.414;18.954;2024-03-06T08:36:13;48.95;;;27.75;;
64684;SDS011;51109;47.414;18.954;2024-03-06T08:38:39;48.53;;;26.52;;
64684;SDS011;51109;47.414;18.954;2024-03-06T08:41:06;45.05;;;26.67;;
64684;SDS011;51109;47.414;18.954;2024-03-06T08:43:32;44.67;;;23.77;;
64684;SDS011;51109;47.414;18.954;2024-03-06T08:45:57;41.40;;;24.20;;
64684;SDS011;51109;47.414;18.954;2024-03-06T08:48:23;33.22;;;20.40;;
64684;SDS011;51109;47.414;18.954;2024-03-06T08:50:49;35.22;;;18.13;;
64684;SDS011;51109;47.414;18.954;2024-03-06T08:53:16;21.58;;;14.88;;
64684;SDS011;51109;47.414;18.954;2024-03-06T08:55:42;27.17;;;16.48;;
64684;SDS011;51109;47.414;18.954;2024-03-06T08:58:07;37.05;;;22.48;;
64684;SDS011;51109;47.414;18.954;2024-03-06T09:00:34;49.08;;;31.30;;
64684;SDS011;51109;47.414;18.954;2024-03-06T09:03:00;82.72;;;46.08;;
64684;SDS011;51109;47.414;18.954;2024-03-06T09:05:25;56.50;;;31.77;;
64684;SDS011;51109;47.414;18.954;2024-03-06T09:07:51;54.08;;;28.23;;
64684;SDS011;51109;47.414;18.954;2024-03-06T09:10:17;51.25;;;26.45;;
64684;SDS011;51109;47.414;18.954;2024-03-06T09:12:44;44.80;;;25.48;;
64684;SDS011;51109;47.414;18.954;2024-03-06T09:15:11;38.53;;;23.90;;
64684;SDS011;51109;47.414;18.954;2024-03-06T09:17:37;37.03;;;23.33;;
64684;SDS011;51109;47.414;18.954;2024-03-06T09:20:04;26.90;;;19.10;;
64684;SDS011;51109;47.414;18.954;2024-03-06T09:22:38;21.67;;;14.07;;
64684;SDS011;51109;47.414;18.954;2024-03-06T09:25:07;23.33;;;14.70;;
64684;SDS011;51109;47.414;18.954;2024-03-06T09:27:33;22.05;;;14.38;;
64684;SDS011;51109;47.414;18.954;2024-03-06T09:29:59;27.52;;;15.38;;
64684;SDS011;51109;47.414;18.954;2024-03-06T09:32:25;24.55;;;15.00;;
64684;SDS011;51109;47.414;18.954;2024-03-06T09:34:51;31.27;;;17.63;;
64684;SDS011;51109;47.414;18.954;2024-03-06T09:37:18;41.42;;;25.20;;
64684;SDS011;51109;47.414;18.954;2024-03-06T09:39:44;43.45;;;25.95;;
64684;SDS011;51109;47.414;18.954;2024-03-06T09:42:14;43.60;;;24.77;;
64684;SDS011;51109;47.414;18.954;2024-03-06T09:44:40;44.33;;;25.70;;
64684;SDS011;51109;47.414;18.954;2024-03-06T09:47:06;37.40;;;23.48;;
64684;SDS011;51109;47.414;18.954;2024-03-06T09:49:34;41.28;;;24.95;;
64684;SDS011;51109;47.414;18.954;2024-03-06T09:52:00;34.45;;;23.42;;
64684;SDS011;51109;47.414;18.954;2024-03-06T09:54:29;46.22;;;25.15;;
64684;SDS011;51109;47.414;18.954;2024-03-06T09:56:55;37.40;;;24.05;;
64684;SDS011;51109;47.414;18.954;2024-03-06T09:59:24;42.08;;;24.83;;
64684;SDS011;51109;47.414;18.954;2024-03-06T10:01:50;39.00;;;22.73;;
64684;SDS011;51109;47.414;18.954;2024-03-06T10:04:20;35.30;;;21.98;;
64684;SDS011;51109;47.414;18.954;2024-03-06T10:06:46;38.00;;;21.77;;
64684;SDS011;51109;47.414;18.954;2024-03-06T10:09:16;39.22;;;21.67;;
64684;SDS011;51109;47.414;18.954;2024-03-06T10:11:42;31.65;;;21.08;;
64684;SDS011;51109;47.414;18.954;2024-03-06T10:14:08;33.25;;;21.00;;
64684;SDS011;51109;47.414;18.954;2024-03-06T10:16:35;29.98;;;18.58;;
64684;SDS011;51109;47.414;18.954;2024-03-06T10:19:17;30.48;;;19.15;;
64684;SDS011;51109;47.414;18.954;2024-03-06T10:21:46;25.00;;;17.13;;
64684;SDS011;51109;47.414;18.954;2024-03-06T10:24:19;20.10;;;15.02;;
64684;SDS011;51109;47.414;18.954;2024-03-06T10:26:49;26.38;;;16.55;;
64684;SDS011;51109;47.414;18.954;2024-03-06T10:29:17;27.95;;;17.13;;
64684;SDS011;51109;47.414;18.954;2024-03-06T10:31:47;23.20;;;16.52;;
64684;SDS011;51109;47.414;18.954;2024-03-06T10:34:14;26.40;;;16.65;;
64684;SDS011;51109;47.414;18.954;2024-03-06T10:36:41;23.45;;;15.85;;
64684;SDS011;51109;47.414;18.954;2024-03-06T10:39:08;24.98;;;17.55;;
64684;SDS011;51109;47.414;18.954;2024-03-06T10:41:39;25.30;;;16.88;;
64684;SDS011;51109;47.414;18.954;2024-03-06T10:44:07;28.17;;;16.63;;
64684;SDS011;51109;47.414;18.954;2024-03-06T10:46:44;25.77;;;16.45;;
64684;SDS011;51109;47.414;18.954;2024-03-06T10:49:12;26.30;;;16.33;;
64684;SDS011;51109;47.414;18.954;2024-03-06T10:51:42;27.23;;;16.38;;
64684;SDS011;51109;47.414;18.954;2024-03-06T10:54:11;26.83;;;16.38;;
64684;SDS011;51109;47.414;18.954;2024-03-06T10:56:40;29.08;;;16.85;;
64684;SDS011;51109;47.414;18.954;2024-03-06T10:59:10;25.35;;;15.82;;
64684;SDS011;51109;47.414;18.954;2024-03-06T11:01:39;24.15;;;16.05;;
64684;SDS011;51109;47.414;18.954;2024-03-06T11:04:06;22.30;;;14.68;;
64684;SDS011;51109;47.414;18.954;2024-03-06T11:06:33;22.50;;;13.73;;
64684;SDS011;51109;47.414;18.954;2024-03-06T11:09:00;21.13;;;12.82;;
64684;SDS011;51109;47.414;18.954;2024-03-06T11:11:27;22.92;;;13.95;;
64684;SDS011;51109;47.414;18.954;2024-03-06T11:14:00;24.92;;;15.10;;
64684;SDS011;51109;47.414;18.954;2024-03-06T11:16:29;19.08;;;11.95;;
64684;SDS011;51109;47.414;18.954;2024-03-06T11:19:05;18.13;;;12.43;;
64684;SDS011;51109;47.414;18.954;2024-03-06T11:21:34;16.27;;;11.05;;
64684;SDS011;51109;47.414;18.954;2024-03-06T11:24:19;22.05;;;11.77;;
64684;SDS011;51109;47.414;18.954;2024-03-06T11:26:56;17.90;;;12.23;;
64684;SDS011;51109;47.414;18.954;2024-03-06T11:29:23;19.70;;;12.57;;
64684;SDS011;51109;47.414;18.954;2024-03-06T11:34:35;18.08;;;11.35;;
64684;SDS011;51109;47.414;18.954;2024-03-06T11:37:05;20.98;;;11.48;;
64684;SDS011;51109;47.414;18.954;2024-03-06T11:39:37;13.90;;;10.45;;
64684;SDS011;51109;47.414;18.954;2024-03-06T11:42:04;14.18;;;10.90;;
64684;SDS011;51109;47.414;18.954;2024-03-06T11:44:33;17.38;;;10.80;;
64684;SDS011;51109;47.414;18.954;2024-03-06T11:47:04;19.25;;;11.48;;
64684;SDS011;51109;47.414;18.954;2024-03-06T11:49:34;15.75;;;9.80;;
64684;SDS011;51109;47.414;18.954;2024-03-06T11:52:05;15.32;;;9.48;;
64684;SDS011;51109;47.414;18.954;2024-03-06T11:54:35;16.63;;;10.90;;
64684;SDS011;51109;47.414;18.954;2024-03-06T11:57:02;20.50;;;11.65;;
64684;SDS011;51109;47.414;18.954;2024-03-06T11:59:30;16.95;;;10.48;;
64684;SDS011;51109;47.414;18.954;2024-03-06T12:01:58;17.63;;;11.70;;
64684;SDS011;51109;47.414;18.954;2024-03-06T12:04:28;17.40;;;10.02;;
64684;SDS011;51109;47.414;18.954;2024-03-06T12:06:59;14.60;;;10.23;;
64684;SDS011;51109;47.414;18.954;2024-03-06T12:09:25;15.93;;;9.88;;
64684;SDS011;51109;47.414;18.954;2024-03-06T12:11:52;15.02;;;10.07;;
64684;SDS011;51109;47.414;18.954;2024-03-06T12:14:18;16.60;;;11.43;;
64684;SDS011;51109;47.414;18.954;2024-03-06T12:16:58;15.90;;;10.63;;
64684;SDS011;51109;47.414;18.954;2024-03-06T12:19:28;20.08;;;11.50;;
64684;SDS011;51109;47.414;18.954;2024-03-06T12:21:59;21.30;;;12.10;;
64684;SDS011;51109;47.414;18.954;2024-03-06T12:24:25;20.20;;;11.55;;
64684;SDS011;51109;47.414;18.954;2024-03-06T12:26:58;20.83;;;12.70;;
64684;SDS011;51109;47.414;18.954;2024-03-06T12:29:27;17.98;;;10.90;;
64684;SDS011;51109;47.414;18.954;2024-03-06T12:31:56;17.02;;;11.00;;
64684;SDS011;51109;47.414;18.954;2024-03-06T12:34:22;20.60;;;11.77;;
64684;SDS011;51109;47.414;18.954;2024-03-06T12:36:48;18.90;;;12.50;;
64684;SDS011;51109;47.414;18.954;2024-03-06T12:39:17;18.38;;;12.27;;
64684;SDS011;51109;47.414;18.954;2024-03-06T12:41:46;22.45;;;11.75;;
64684;SDS011;51109;47.414;18.954;2024-03-06T12:44:13;18.00;;;11.73;;
64684;SDS011;51109;47.414;18.954;2024-03-06T12:46:40;21.55;;;11.45;;
64684;SDS011;51109;47.414;18.954;2024-03-06T12:49:06;17.02;;;11.57;;
64684;SDS011;51109;47.414;18.954;2024-03-06T12:51:32;16.90;;;10.82;;
64684;SDS011;51109;47.414;18.954;2024-03-06T12:53:58;17.75;;;11.15;;
64684;SDS011;51109;47.414;18.954;2024-03-06T12:56:26;16.27;;;11.75;;
64684;SDS011;51109;47.414;18.954;2024-03-06T12:58:52;15.23;;;11.25;;
64684;SDS011;51109;47.414;18.954;2024-03-06T13:01:18;17.30;;;11.48;;
64684;SDS011;51109;47.414;18.954;2024-03-06T13:03:43;18.40;;;12.85;;
64684;SDS011;51109;47.414;18.954;2024-03-06T13:06:09;17.85;;;12.05;;
64684;SDS011;51109;47.414;18.954;2024-03-06T13:08:35;18.20;;;11.35;;
64684;SDS011;51109;47.414;18.954;2024-03-06T13:11:01;17.10;;;11.43;;
64684;SDS011;51109;47.414;18.954;2024-03-06T13:13:28;21.88;;;14.48;;
64684;SDS011;51109;47.414;18.954;2024-03-06T13:15:55;19.23;;;12.27;;
64684;SDS011;51109;47.414;18.954;2024-03-06T13:18:21;21.30;;;13.93;;
64684;SDS011;51109;47.414;18.954;2024-03-06T13:20:47;22.88;;;13.88;;
64684;SDS011;51109;47.414;18.954;2024-03-06T13:23:14;23.65;;;14.85;;
64684;SDS011;51109;47.414;18.954;2024-03-06T13:25:39;21.55;;;13.73;;
64684;SDS011;51109;47.414;18.954;2024-03-06T13:28:05;26.25;;;15.27;;
64684;SDS011;51109;47.414;18.954;2024-03-06T13:30:32;23.63;;;15.23;;
64684;SDS011;51109;47.414;18.954;2024-03-06T13:32:58;23.05;;;14.05;;
64684;SDS011;51109;47.414;18.954;2024-03-06T13:35:24;26.33;;;15.55;;
64684;SDS011;51109;47.414;18.954;2024-03-06T13:37:50;26.45;;;14.88;;
64684;SDS011;51109;47.414;18.954;2024-03-06T13:40:16;24.20;;;15.85;;
64684;SDS011;51109;47.414;18.954;2024-03-06T13:42:42;23.58;;;14.63;;
64684;SDS011;51109;47.414;18.954;2024-03-06T13:45:09;23.90;;;15.65;;
64684;SDS011;51109;47.414;18.954;2024-03-06T13:47:40;23.23;;;16.13;;
64684;SDS011;51109;47.414;18.954;2024-03-06T13:50:11;27.60;;;15.77;;
64684;SDS011;51109;47.414;18.954;2024-03-06T13:52:39;25.38;;;16.83;;
64684;SDS011;51109;47.414;18.954;2024-03-06T13:55:06;22.23;;;15.10;;
64684;SDS011;51109;47.414;18.954;2024-03-06T13:57:33;25.25;;;15.88;;
64684;SDS011;51109;47.414;18.954;2024-03-06T14:00:03;26.65;;;15.82;;
64684;SDS011;51109;47.414;18.954;2024-03-06T14:02:46;27.00;;;15.88;;
64684;SDS011;51109;47.414;18.954;2024-03-06T14:05:13;28.80;;;16.83;;
64684;SDS011;51109;47.414;18.954;2024-03-06T14:07:39;31.08;;;18.63;;
64684;SDS011;51109;47.414;18.954;2024-03-06T14:10:06;29.77;;;18.48;;
64684;SDS011;51109;47.414;18.954;2024-03-06T14:12:33;29.10;;;18.60;;